Time;durP1;ratioP1;P1;durP2;ratioP2;P2;SDS_P1;SDS_P2;PMS_P1;PMS_P2;Temp;Humidity;BMP_temperature;BMP_pressure;BME280_temperature;BME280_humidity;BME280_pressure;Samples;Min_cycle;Max_cycle;Signal;HPM_P1;HPM_P2
2024/01/03 00:02:10;;;;;;;22.10;10.90;;;;;;;0.56;100.00;98089.35;109109;1256;71221;-60
2024/01/03 00:04:58;;;;;;;23.20;10.60;;;;;;;0.55;100.00;98081.41;109071;1257;58614;-60
2024/01/03 00:07:47;;;;;;;24.10;10.40;;;;;;;0.53;100.00;98076.83;109175;1257;59987;-60
2024/01/03 00:10:51;;;;;;;22.40;10.80;;;;;;;0.53;100.00;98068.13;109184;1257;73782;-61
2024/01/03 00:13:38;;;;;;;21.30;10.50;;;;;;;0.50;100.00;98059.71;109065;1258;67907;-61
2024/01/03 00:16:26;;;;;;;22.40;9.50;;;;;;;0.50;100.00;98053.46;109170;1257;72379;-60
2024/01/03 00:19:20;;;;;;;22.00;10.00;;;;;;;0.48;100.00;98052.36;109180;1257;58180;-60
2024/01/03 00:22:11;;;;;;;21.90;10.00;;;;;;;0.44;100.00;98042.52;108354;1257;1002170;-60
2024/01/03 00:25:00;;;;;;;22.70;10.20;;;;;;;0.43;100.00;98037.54;109116;1257;73668;-61
2024/01/03 00:27:48;;;;;;;22.70;11.10;;;;;;;0.42;100.00;98034.61;109102;1257;67780;-61
2024/01/03 00:30:36;;;;;;;24.50;10.00;;;;;;;0.42;100.00;98032.92;109175;1257;72634;-61
2024/01/03 00:33:24;;;;;;;21.30;9.60;;;;;;;0.41;100.00;98024.61;109078;1257;58117;-61
2024/01/03 00:36:15;;;;;;;20.80;10.00;;;;;;;0.36;100.00;98024.56;109046;1257;60108;-60
2024/01/03 00:39:03;;;;;;;21.20;10.30;;;;;;;0.28;100.00;98011.30;109145;1257;71675;-60
2024/01/03 00:41:50;;;;;;;22.80;9.10;;;;;;;0.31;100.00;98020.76;109088;1257;68691;-60
2024/01/03 00:44:38;;;;;;;23.60;10.80;;;;;;;0.28;100.00;98015.70;109116;1257;74412;-60
2024/01/03 00:47:27;;;;;;;22.40;10.60;;;;;;;0.26;100.00;98015.33;109076;1257;58092;-60
2024/01/03 00:50:16;;;;;;;22.20;10.40;;;;;;;0.22;100.00;98015.43;109033;1256;60381;-61
2024/01/03 00:53:04;;;;;;;22.80;10.50;;;;;;;0.19;100.00;98012.48;109066;1257;73802;-61
2024/01/03 00:55:53;;;;;;;19.90;8.80;;;;;;;0.14;100.00;98006.19;109185;1257;68742;-61
2024/01/03 00:58:40;;;;;;;16.90;8.20;;;;;;;0.12;100.00;98007.36;109182;1257;71426;-60
2024/01/03 01:01:28;;;;;;;22.50;10.00;;;;;;;0.09;100.00;97999.02;109206;1257;58492;-60
2024/01/03 01:04:16;;;;;;;20.70;10.30;;;;;;;0.06;100.00;98000.11;109035;1257;60701;-61
2024/01/03 01:07:04;;;;;;;21.80;10.50;;;;;;;0.05;100.00;97999.48;109187;1257;72285;-61
2024/01/03 01:09:52;;;;;;;22.70;9.80;;;;;;;0.05;100.00;97994.76;109166;1257;67837;-60
2024/01/03 01:12:39;;;;;;;19.40;8.50;;;;;;;0.05;100.00;97986.92;109118;1257;71670;-62
2024/01/03 01:15:27;;;;;;;22.70;10.50;;;;;;;0.02;100.00;97983.83;109106;1257;58250;-60
2024/01/03 01:18:15;;;;;;;18.90;9.90;;;;;;;0.01;100.00;97977.79;109200;1257;58737;-60
2024/01/03 01:21:04;;;;;;;21.50;10.40;;;;;;;0.02;100.00;97971.31;109171;1257;74560;-62
2024/01/03 01:23:51;;;;;;;18.60;8.90;;;;;;;0.01;100.00;97958.05;109201;1257;67710;-62
2024/01/03 01:26:40;;;;;;;18.40;8.80;;;;;;;0.00;100.00;97951.34;109026;1257;72456;-60
2024/01/03 01:29:28;;;;;;;20.10;9.00;;;;;;;-0.03;100.00;97944.19;109098;1257;58487;-60
2024/01/03 01:32:15;;;;;;;21.30;9.40;;;;;;;-0.04;100.00;97944.64;108388;1257;1002305;-62
2024/01/03 01:35:03;;;;;;;21.30;9.30;;;;;;;-0.05;100.00;97942.92;109101;1257;74903;-61
2024/01/03 01:37:51;;;;;;;16.90;7.50;;;;;;;-0.05;100.00;97941.52;109119;1257;67608;-61
2024/01/03 01:40:39;;;;;;;21.40;9.90;;;;;;;-0.05;100.00;97935.25;108984;1257;72472;-60
2024/01/03 01:43:26;;;;;;;19.40;9.10;;;;;;;-0.06;100.00;97931.63;109146;1257;58655;-61
2024/01/03 01:46:16;;;;;;;16.70;7.90;;;;;;;-0.08;100.00;97926.06;109081;1257;61307;-60
2024/01/03 01:49:06;;;;;;;18.50;8.40;;;;;;;-0.10;100.00;97918.34;108361;1257;1002446;-60
2024/01/03 01:51:54;;;;;;;16.60;7.80;;;;;;;-0.11;100.00;97917.00;109098;1257;68824;-60
2024/01/03 01:54:42;;;;;;;18.00;8.40;;;;;;;-0.14;100.00;97912.86;108363;1257;1003161;-61
2024/01/03 01:57:32;;;;;;;17.30;8.10;;;;;;;-0.17;100.00;97905.40;109090;1257;58091;-60
2024/01/03 02:00:20;;;;;;;16.10;6.80;;;;;;;-0.18;100.00;97903.16;109139;1257;61531;-59
2024/01/03 02:03:10;;;;;;;16.20;6.90;;;;;;;-0.20;100.00;97899.49;109089;1258;73872;-60
2024/01/03 02:05:58;;;;;;;16.80;7.90;;;;;;;-0.17;100.00;97896.52;109118;1257;67919;-60
2024/01/03 02:08:46;;;;;;;18.10;8.90;;;;;;;-0.19;100.00;97893.30;109172;1257;72428;-60
2024/01/03 02:11:34;;;;;;;22.30;9.70;;;;;;;-0.19;100.00;97886.14;109018;1262;60318;-60
2024/01/03 02:14:21;;;;;;;16.20;7.10;;;;;;;-0.18;100.00;97881.27;108433;1257;1002926;-60
2024/01/03 02:17:09;;;;;;;15.80;6.80;;;;;;;-0.19;100.00;97879.56;109091;1257;73510;-61
2024/01/03 02:20:00;;;;;;;17.70;7.60;;;;;;;-0.18;100.00;97875.48;109062;1257;66836;-61
2024/01/03 02:22:48;;;;;;;19.70;9.30;;;;;;;-0.20;100.00;97873.67;109166;1257;72660;-61
2024/01/03 02:25:36;;;;;;;17.90;8.60;;;;;;;-0.21;100.00;97871.17;109062;1257;58769;-59
2024/01/03 02:28:24;;;;;;;18.90;8.90;;;;;;;-0.23;100.00;97870.05;109046;1257;59036;-61
2024/01/03 02:31:12;;;;;;;19.50;8.50;;;;;;;-0.22;100.00;97860.80;108893;1260;73907;-60
2024/01/03 02:34:01;;;;;;;20.80;9.90;;;;;;;-0.23;100.00;97859.08;108953;1260;67899;-60
2024/01/03 02:36:51;;;;;;;16.60;7.50;;;;;;;-0.21;100.00;97856.14;108843;1260;71104;-60
2024/01/03 02:39:39;;;;;;;21.10;9.00;;;;;;;-0.25;100.00;97850.34;108809;1260;58872;-60
2024/01/03 02:42:27;;;;;;;20.00;8.40;;;;;;;-0.27;100.00;97851.88;108924;1261;59958;-59
2024/01/03 02:45:15;;;;;;;19.00;9.10;;;;;;;-0.28;100.00;97842.16;108935;1260;71671;-60
2024/01/03 02:48:04;;;;;;;16.50;7.50;;;;;;;-0.26;100.00;97840.33;108842;1260;68859;-60
2024/01/03 02:50:51;;;;;;;18.90;8.00;;;;;;;-0.26;100.00;97842.77;108930;1263;73588;-61
2024/01/03 02:53:39;;;;;;;16.50;7.40;;;;;;;-0.27;100.00;97840.56;108930;1260;58879;-60
2024/01/03 02:56:26;;;;;;;18.50;7.80;;;;;;;-0.28;100.00;97829.44;108952;1260;60609;-60
2024/01/03 02:59:14;;;;;;;15.60;7.10;;;;;;;-0.31;100.00;97826.88;108952;1261;73764;-61
2024/01/03 03:02:02;;;;;;;18.90;8.10;;;;;;;-0.28;100.00;97830.48;109000;1257;67090;-60
2024/01/03 03:04:50;;;;;;;17.20;7.40;;;;;;;-0.29;100.00;97826.20;109111;1257;71085;-60
2024/01/03 03:07:39;;;;;;;17.90;7.50;;;;;;;-0.30;100.00;97820.55;109149;1257;58759;-61
2024/01/03 03:10:28;;;;;;;15.30;6.60;;;;;;;-0.32;100.00;97819.31;109198;1257;60218;-59
2024/01/03 03:13:16;;;;;;;14.00;6.60;;;;;;;-0.34;100.00;97817.00;109105;1257;72630;-62
2024/01/03 03:16:07;;;;;;;14.30;6.70;;;;;;;-0.36;100.00;97810.84;109107;1257;68781;-61
2024/01/03 03:18:55;;;;;;;15.70;7.50;;;;;;;-0.39;100.00;97805.44;109132;1257;72345;-61
2024/01/03 03:21:43;;;;;;;12.80;5.60;;;;;;;-0.41;100.00;97801.75;108953;1264;60088;-61
2024/01/03 03:24:30;;;;;;;15.50;6.60;;;;;;;-0.42;100.00;97803.25;109209;1257;60377;-58
2024/01/03 03:27:18;;;;;;;16.50;7.10;;;;;;;-0.43;100.00;97798.59;109121;1256;72285;-62
2024/01/03 03:30:07;;;;;;;15.80;7.60;;;;;;;-0.42;100.00;97795.58;109120;1257;66515;-62
2024/01/03 03:32:55;;;;;;;15.50;7.30;;;;;;;-0.42;100.00;97796.05;109122;1257;72831;-61
2024/01/03 03:35:43;;;;;;;14.90;6.50;;;;;;;-0.43;100.00;97796.16;109091;1257;58124;-60
2024/01/03 03:38:31;;;;;;;14.90;6.60;;;;;;;-0.43;100.00;97783.30;109124;1257;59450;-60
2024/01/03 03:41:19;;;;;;;15.70;7.00;;;;;;;-0.41;100.00;97778.96;109105;1257;73642;-60
2024/01/03 03:44:08;;;;;;;16.70;6.60;;;;;;;-0.42;100.00;97777.30;109063;1260;66362;-60
2024/01/03 03:46:55;;;;;;;15.20;6.20;;;;;;;-0.41;100.00;97779.64;109019;1257;72455;-60
2024/01/03 03:49:43;;;;;;;13.60;6.00;;;;;;;-0.40;100.00;97773.80;109043;1259;58517;-60
2024/01/03 03:52:31;;;;;;;15.40;6.80;;;;;;;-0.42;100.00;97768.02;109063;1259;59585;-61
2024/01/03 03:55:19;;;;;;;13.00;6.20;;;;;;;-0.40;100.00;97765.42;109072;1260;74770;-61
2024/01/03 03:58:06;;;;;;;16.20;6.80;;;;;;;-0.42;100.00;97763.32;109089;1259;66093;-58
2024/01/03 04:00:54;;;;;;;16.40;7.40;;;;;;;-0.40;100.00;97757.65;109066;1260;71079;-63
2024/01/03 04:03:42;;;;;;;14.60;6.80;;;;;;;-0.40;100.00;97750.33;108991;1259;59754;-60
2024/01/03 04:06:30;;;;;;;13.30;5.60;;;;;;;-0.41;100.00;97748.28;109038;1259;59908;-60
2024/01/03 04:09:20;;;;;;;16.90;7.50;;;;;;;-0.42;100.00;97747.99;108699;1259;318011;-60
2024/01/03 04:12:10;;;;;;;11.90;5.10;;;;;;;-0.42;100.00;97748.20;108302;1260;1002280;-60
2024/01/03 04:14:58;;;;;;;15.50;6.00;;;;;;;-0.45;100.00;97746.46;109037;1259;73636;-60
2024/01/03 04:17:46;;;;;;;16.00;6.90;;;;;;;-0.44;100.00;97743.30;108886;1259;58830;-60
2024/01/03 04:20:34;;;;;;;15.70;6.90;;;;;;;-0.44;100.00;97738.77;109058;1260;58725;-60
2024/01/03 04:23:21;;;;;;;15.00;6.80;;;;;;;-0.44;100.00;97735.44;108945;1260;72537;-60
2024/01/03 04:26:09;;;;;;;14.50;5.90;;;;;;;-0.43;100.00;97736.40;109063;1257;67913;-60
2024/01/03 04:28:57;;;;;;;15.70;6.70;;;;;;;-0.42;100.00;97743.45;109110;1260;73397;-60
2024/01/03 04:31:45;;;;;;;14.10;6.30;;;;;;;-0.44;100.00;97742.38;109084;1257;59675;-60
2024/01/03 04:34:32;;;;;;;16.20;6.80;;;;;;;-0.45;100.00;97739.52;109007;1257;58848;-60
2024/01/03 04:37:20;;;;;;;12.20;5.00;;;;;;;-0.44;100.00;97740.84;108863;1263;74600;-60
2024/01/03 04:40:08;;;;;;;15.70;6.90;;;;;;;-0.45;100.00;97734.62;109007;1259;67622;-61
2024/01/03 04:42:57;;;;;;;15.60;7.20;;;;;;;-0.46;100.00;97732.77;109041;1257;73509;-60
2024/01/03 04:45:44;;;;;;;15.40;6.90;;;;;;;-0.46;100.00;97729.64;108938;1257;58537;-60
2024/01/03 04:48:35;;;;;;;16.20;6.70;;;;;;;-0.46;100.00;97729.13;109075;1258;59710;-59
2024/01/03 04:51:23;;;;;;;13.80;5.80;;;;;;;-0.46;100.00;97723.72;109027;1257;73730;-61
2024/01/03 04:54:10;;;;;;;16.60;6.40;;;;;;;-0.47;100.00;97725.70;109159;1258;67790;-61
2024/01/03 04:56:58;;;;;;;15.20;7.20;;;;;;;-0.48;100.00;97721.94;109077;1259;73502;-60
2024/01/03 04:59:46;;;;;;;16.50;6.90;;;;;;;-0.47;100.00;97720.12;108939;1257;58117;-60
2024/01/03 05:02:36;;;;;;;17.90;8.00;;;;;;;-0.46;100.00;97717.06;109044;1260;59397;-61
2024/01/03 05:05:25;;;;;;;19.50;8.10;;;;;;;-0.48;100.00;97712.50;108981;1260;73677;-61
2024/01/03 05:08:14;;;;;;;16.80;8.70;;;;;;;-0.49;100.00;97717.68;109059;1258;67615;-60
2024/01/03 05:11:03;;;;;;;16.70;7.70;;;;;;;-0.52;100.00;97717.48;108257;1258;1002903;-60
2024/01/03 05:13:50;;;;;;;18.00;7.50;;;;;;;-0.52;100.00;97717.52;109092;1258;58113;-61
2024/01/03 05:16:41;;;;;;;14.70;7.60;;;;;;;-0.53;100.00;97717.73;109032;1257;61543;-60
2024/01/03 05:19:29;;;;;;;19.30;8.10;;;;;;;-0.55;100.00;97714.76;109023;1258;72630;-60
2024/01/03 05:22:17;;;;;;;16.60;7.50;;;;;;;-0.56;100.00;97716.38;108269;1258;1002287;-60
2024/01/03 05:25:08;;;;;;;20.10;8.80;;;;;;;-0.57;100.00;97712.63;109103;1257;73390;-60
2024/01/03 05:27:56;;;;;;;19.30;8.60;;;;;;;-0.58;100.00;97715.45;109117;1258;58138;-60
2024/01/03 05:30:43;;;;;;;17.90;7.60;;;;;;;-0.56;100.00;97714.30;109117;1259;60477;-60
2024/01/03 05:33:31;;;;;;;17.00;7.90;;;;;;;-0.58;100.00;97709.89;109067;1260;72731;-63
2024/01/03 05:36:19;;;;;;;21.40;8.80;;;;;;;-0.59;100.00;97703.72;109080;1257;66409;-61
2024/01/03 05:39:08;;;;;;;17.70;8.10;;;;;;;-0.64;100.00;97701.27;108984;1257;73852;-62
2024/01/03 05:41:56;;;;;;;18.50;7.90;;;;;;;-0.64;100.00;97708.29;109072;1260;58602;-61
2024/01/03 05:44:44;;;;;;;17.80;7.30;;;;;;;-0.67;100.00;97708.28;108882;1259;61119;-61
2024/01/03 05:47:32;;;;;;;14.70;7.00;;;;;;;-0.69;100.00;97708.73;108994;1259;73836;-62
2024/01/03 05:50:20;;;;;;;16.60;7.50;;;;;;;-0.70;100.00;97708.59;108301;1258;1002388;-61
2024/01/03 05:53:07;;;;;;;17.10;7.60;;;;;;;-0.71;100.00;97704.01;108307;1257;1002234;-61
2024/01/03 05:55:56;;;;;;;15.80;7.90;;;;;;;-0.73;100.00;97707.41;108267;1258;1002886;-62
2024/01/03 05:58:44;;;;;;;17.40;7.80;;;;;;;-0.73;100.00;97707.80;108323;1257;1002891;-60
2024/01/03 06:01:31;;;;;;;15.00;6.10;;;;;;;-0.73;100.00;97702.38;108955;1259;73462;-62
2024/01/03 06:04:19;;;;;;;15.70;7.40;;;;;;;-0.76;100.00;97701.73;108945;1258;67889;-62
2024/01/03 06:07:07;;;;;;;15.70;7.10;;;;;;;-0.73;100.00;97704.52;108965;1260;71380;-62
2024/01/03 06:09:55;;;;;;;15.40;7.20;;;;;;;-0.72;100.00;97703.73;108221;1261;1002169;-66
2024/01/03 06:12:43;;;;;;;15.10;6.40;;;;;;;-0.75;100.00;97701.52;109116;1259;58968;-60
2024/01/03 06:15:31;;;;;;;12.00;5.60;;;;;;;-0.79;100.00;97690.80;108983;1258;73863;-61
2024/01/03 06:18:19;;;;;;;15.80;6.80;;;;;;;-0.77;100.00;97699.38;109085;1258;68533;-61
2024/01/03 06:21:11;;;;;;;13.70;6.40;;;;;;;-0.78;100.00;97695.27;108312;1260;1002351;-62
2024/01/03 06:23:58;;;;;;;17.30;7.30;;;;;;;-0.78;100.00;97699.95;108999;1260;58561;-64
2024/01/03 06:26:47;;;;;;;13.40;6.00;;;;;;;-0.76;100.00;97697.25;109018;1260;60178;-59
2024/01/03 06:29:35;;;;;;;13.80;6.00;;;;;;;-0.78;100.00;97699.45;109074;1260;73865;-62
2024/01/03 06:32:26;;;;;;;13.70;6.00;;;;;;;-0.78;100.00;97697.50;109018;1258;68866;-62
2024/01/03 06:35:15;;;;;;;12.80;5.60;;;;;;;-0.79;100.00;97701.23;108271;1260;1002352;-62
2024/01/03 06:38:03;;;;;;;13.80;5.70;;;;;;;-0.82;100.00;97699.02;109057;1260;58155;-61
2024/01/03 06:40:52;;;;;;;15.30;5.60;;;;;;;-0.83;100.00;97702.61;109037;1258;58738;-61
2024/01/03 06:43:40;;;;;;;11.40;5.00;;;;;;;-0.82;100.00;97702.37;109086;1260;72299;-60
2024/01/03 06:46:28;;;;;;;13.00;5.90;;;;;;;-0.83;100.00;97702.95;108991;1260;69184;-61
2024/01/03 06:49:15;;;;;;;11.00;5.10;;;;;;;-0.85;100.00;97696.10;109094;1260;72634;-62
2024/01/03 06:52:03;;;;;;;11.30;5.30;;;;;;;-0.84;100.00;97695.52;109032;1261;58124;-61
2024/01/03 06:54:51;;;;;;;12.00;5.10;;;;;;;-0.86;100.00;97694.91;108300;1260;1002230;-61
2024/01/03 06:57:38;;;;;;;10.70;4.60;;;;;;;-0.88;100.00;97699.08;108345;1259;1015480;-62
2024/01/03 07:00:26;;;;;;;11.60;5.40;;;;;;;-0.92;100.00;97692.59;108212;1258;1002209;-61
2024/01/03 07:03:15;;;;;;;10.50;5.00;;;;;;;-0.94;100.00;97697.08;109079;1258;72578;-61
2024/01/03 07:06:03;;;;;;;10.30;4.40;;;;;;;-0.96;100.00;97697.36;108225;1259;1002249;-59
2024/01/03 07:08:53;;;;;;;12.00;4.70;;;;;;;-0.96;100.00;97699.14;108974;1258;61053;-63
2024/01/03 07:11:41;;;;;;;12.70;5.00;;;;;;;-0.97;100.00;97697.27;108997;1258;73960;-61
2024/01/03 07:14:29;;;;;;;10.40;4.90;;;;;;;-0.98;100.00;97700.64;108929;1260;66765;-63
2024/01/03 07:17:17;;;;;;;9.90;3.80;;;;;;;-0.99;100.00;97692.35;109056;1258;72233;-60
2024/01/03 07:20:05;;;;;;;10.90;4.90;;;;;;;-0.97;100.00;97693.64;109016;1258;58480;-61
2024/01/03 07:22:54;;;;;;;10.90;4.70;;;;;;;-0.99;100.00;97694.25;108963;1258;58955;-64
2024/01/03 07:25:44;;;;;;;10.90;5.10;;;;;;;-1.03;100.00;97692.30;108981;1258;73645;-61
2024/01/03 07:28:32;;;;;;;10.40;4.60;;;;;;;-1.06;100.00;97693.35;108993;1260;67624;-60
2024/01/03 07:31:20;;;;;;;11.30;4.90;;;;;;;-1.08;100.00;97684.77;108917;1260;72615;-62
2024/01/03 07:34:08;;;;;;;10.50;4.50;;;;;;;-1.10;100.00;97689.04;109030;1260;58482;-60
2024/01/03 07:36:56;;;;;;;12.70;5.70;;;;;;;-1.10;100.00;97690.30;109020;1260;61568;-60
2024/01/03 07:39:43;;;;;;;9.70;4.80;;;;;;;-1.13;100.00;97687.56;108970;1260;72204;-60
2024/01/03 07:42:31;;;;;;;11.70;4.90;;;;;;;-1.14;100.00;97690.79;109111;1260;67669;-60
2024/01/03 07:45:19;;;;;;;12.00;5.40;;;;;;;-1.14;100.00;97688.27;109047;1258;72323;-62
2024/01/03 07:48:07;;;;;;;12.60;5.40;;;;;;;-1.12;100.00;97690.77;109000;1260;58127;-61
2024/01/03 07:50:56;;;;;;;10.80;4.30;;;;;;;-1.12;100.00;97681.19;109069;1259;60475;-62
2024/01/03 07:53:43;;;;;;;11.10;4.80;;;;;;;-1.11;100.00;97684.64;108235;1259;1002263;-60
2024/01/03 07:56:31;;;;;;;11.30;4.80;;;;;;;-1.07;100.00;97689.74;108939;1261;66530;-60
2024/01/03 07:59:19;;;;;;;8.90;4.00;;;;;;;-1.04;100.00;97686.75;109049;1260;71910;-60
2024/01/03 08:02:07;;;;;;;13.00;5.30;;;;;;;-1.05;100.00;97684.93;108959;1263;58119;-61
2024/01/03 08:04:55;;;;;;;12.60;5.20;;;;;;;-1.09;100.00;97685.50;109054;1260;58153;-60
2024/01/03 08:07:43;;;;;;;9.80;4.10;;;;;;;-1.11;100.00;97682.92;109076;1261;73854;-61
2024/01/03 08:10:31;;;;;;;11.00;4.90;;;;;;;-1.13;100.00;97683.40;108956;1261;68107;-61
2024/01/03 08:13:18;;;;;;;10.70;5.10;;;;;;;-1.15;100.00;97684.02;109046;1260;72364;-61
2024/01/03 08:16:06;;;;;;;12.20;5.40;;;;;;;-1.16;100.00;97684.98;108945;1258;58727;-63
2024/01/03 08:18:54;;;;;;;12.60;5.10;;;;;;;-1.17;100.00;97682.80;108318;1258;1003056;-59
2024/01/03 08:21:42;;;;;;;15.00;5.40;;;;;;;-1.18;100.00;97684.39;108985;1259;73796;-63
2024/01/03 08:24:29;;;;;;;12.70;5.40;;;;;;;-1.20;100.00;97679.64;109083;1260;68706;-63
2024/01/03 08:27:20;;;;;;;10.90;4.40;;;;;;;-1.22;100.00;97685.36;109015;1259;71533;-60
2024/01/03 08:30:08;;;;;;;12.20;4.80;;;;;;;-1.21;100.00;97681.23;108966;1261;58432;-61
2024/01/03 08:32:56;;;;;;;11.60;5.20;;;;;;;-1.21;100.00;97674.33;108967;1261;58777;-63
2024/01/03 08:35:44;;;;;;;12.00;4.90;;;;;;;-1.20;100.00;97683.64;109092;1260;74577;-63
2024/01/03 08:38:31;;;;;;;14.00;6.00;;;;;;;-1.19;100.00;97679.09;109083;1258;66427;-61
2024/01/03 08:41:19;;;;;;;15.20;6.00;;;;;;;-1.17;100.00;97681.21;108892;1260;72629;-64
2024/01/03 08:44:07;;;;;;;11.90;5.50;;;;;;;-1.18;100.00;97677.08;108899;1263;58799;-63
2024/01/03 08:46:55;;;;;;;12.70;5.00;;;;;;;-1.18;100.00;97680.05;108977;1258;60592;-62
2024/01/03 08:49:45;;;;;;;13.20;5.10;;;;;;;-1.16;100.00;97684.13;109080;1260;72763;-62
2024/01/03 08:52:33;;;;;;;12.70;5.50;;;;;;;-1.18;100.00;97688.95;108894;1260;66691;-63
2024/01/03 08:55:20;;;;;;;12.90;4.90;;;;;;;-1.18;100.00;97692.23;108977;1260;72439;-61
2024/01/03 08:58:08;;;;;;;12.30;5.10;;;;;;;-1.18;100.00;97683.71;108987;1259;58516;-62
2024/01/03 09:00:57;;;;;;;12.80;5.40;;;;;;;-1.20;100.00;97690.63;108943;1260;60408;-61
2024/01/03 09:03:46;;;;;;;11.20;5.10;;;;;;;-1.18;100.00;97689.63;109009;1260;74431;-63
2024/01/03 09:06:35;;;;;;;12.90;5.10;;;;;;;-1.16;100.00;97688.98;108878;1257;68029;-62
2024/01/03 09:09:23;;;;;;;13.50;5.70;;;;;;;-1.14;100.00;97684.31;109075;1260;74645;-64
2024/01/03 09:12:11;;;;;;;12.20;5.10;;;;;;;-1.14;100.00;97691.45;109043;1257;58898;-60
2024/01/03 09:14:59;;;;;;;13.10;4.40;;;;;;;-1.15;100.00;97692.35;109083;1258;58705;-63
2024/01/03 09:17:47;;;;;;;11.20;5.00;;;;;;;-1.15;100.00;97694.33;109034;1260;72693;-61
2024/01/03 09:20:35;;;;;;;13.60;5.80;;;;;;;-1.17;100.00;97692.40;108997;1260;67755;-60
2024/01/03 09:23:23;;;;;;;12.80;5.70;;;;;;;-1.18;100.00;97700.60;108964;1259;72637;-60
2024/01/03 09:26:11;;;;;;;13.20;6.20;;;;;;;-1.17;100.00;97699.11;108975;1259;58102;-61
2024/01/03 09:29:00;;;;;;;12.40;4.80;;;;;;;-1.18;100.00;97698.31;108940;1263;58974;-61
2024/01/03 09:31:47;;;;;;;11.60;5.40;;;;;;;-1.18;100.00;97697.65;108901;1260;72657;-61
2024/01/03 09:34:39;;;;;;;11.90;5.10;;;;;;;-1.20;100.00;97695.80;109095;1260;68080;-60
2024/01/03 09:37:31;;;;;;;14.20;4.60;;;;;;;-1.19;100.00;97695.63;109082;1260;72723;-60
2024/01/03 09:40:19;;;;;;;13.60;5.90;;;;;;;-1.18;100.00;97693.66;108965;1259;59486;-61
2024/01/03 09:43:08;;;;;;;14.00;5.90;;;;;;;-1.19;100.00;97688.67;109059;1259;58720;-61
2024/01/03 09:45:57;;;;;;;14.10;4.70;;;;;;;-1.19;100.00;97690.54;109025;1260;73597;-61
2024/01/03 09:48:48;;;;;;;13.70;5.70;;;;;;;-1.17;100.00;97692.54;109020;1261;66871;-60
2024/01/03 09:51:37;;;;;;;15.10;7.10;;;;;;;-1.17;100.00;97681.73;108872;1260;72259;-63
2024/01/03 09:54:25;;;;;;;13.10;5.60;;;;;;;-1.17;100.00;97682.45;108905;1259;58174;-62
2024/01/03 09:57:15;;;;;;;14.30;5.90;;;;;;;-1.18;100.00;97687.02;108971;1260;60188;-61
2024/01/03 10:00:07;;;;;;;14.80;5.70;;;;;;;-1.19;100.00;97683.58;108964;1260;74109;-62
2024/01/03 10:02:59;;;;;;;11.60;4.70;;;;;;;-1.21;100.00;97680.73;108962;1259;65778;-61
2024/01/03 10:05:46;;;;;;;14.60;6.60;;;;;;;-1.24;100.00;97679.90;109036;1260;73322;-59
2024/01/03 10:08:35;;;;;;;15.90;6.30;;;;;;;-1.22;100.00;97679.59;109065;1259;58897;-61
2024/01/03 10:11:23;;;;;;;13.20;5.30;;;;;;;-1.24;100.00;97677.34;108234;1257;1002575;-60
2024/01/03 10:14:19;;;;;;;13.70;5.00;;;;;;;-1.23;100.00;97674.78;109014;1260;72507;-61
2024/01/03 10:17:11;;;;;;;12.90;5.70;;;;;;;-1.24;100.00;97669.64;108975;1260;67988;-61
2024/01/03 10:19:58;;;;;;;13.70;4.90;;;;;;;-1.25;100.00;97677.04;108902;1260;73395;-62
2024/01/03 10:22:46;;;;;;;15.40;5.70;;;;;;;-1.26;100.00;97678.16;109055;1257;58315;-62
2024/01/03 10:25:34;;;;;;;13.10;6.00;;;;;;;-1.27;100.00;97676.11;109070;1257;60178;-60
2024/01/03 10:28:22;;;;;;;16.00;6.70;;;;;;;-1.26;100.00;97677.10;108917;1259;74843;-61
2024/01/03 10:31:10;;;;;;;14.10;6.10;;;;;;;-1.26;100.00;97678.86;109025;1257;69476;-63
2024/01/03 10:33:58;;;;;;;16.70;6.80;;;;;;;-1.24;100.00;97676.63;108978;1257;72428;-62
2024/01/03 10:36:52;;;;;;;11.00;5.10;;;;;;;-1.25;100.00;97678.94;109081;1259;58139;-62
2024/01/03 10:39:42;;;;;;;12.80;5.20;;;;;;;-1.24;100.00;97682.02;108982;1257;61353;-60
2024/01/03 10:42:30;;;;;;;14.70;5.00;;;;;;;-1.24;100.00;97677.69;109034;1259;73863;-62
2024/01/03 10:45:18;;;;;;;11.60;5.50;;;;;;;-1.26;100.00;97674.34;109131;1259;68316;-61
2024/01/03 10:48:06;;;;;;;14.00;6.70;;;;;;;-1.31;100.00;97671.31;109074;1260;70827;-63
2024/01/03 10:50:59;;;;;;;15.10;5.90;;;;;;;-1.32;100.00;97663.59;108949;1258;59702;-64
2024/01/03 10:53:49;;;;;;;13.90;6.20;;;;;;;-1.33;100.00;97664.70;109013;1257;60393;-63
2024/01/03 10:56:38;;;;;;;14.10;6.00;;;;;;;-1.31;100.00;97653.45;108186;1257;1002196;-61
2024/01/03 10:59:39;;;;;;;13.20;5.20;;;;;;;-1.31;100.00;97650.66;108132;1260;1002714;-62
2024/01/03 11:02:37;;;;;;;12.20;5.50;;;;;;;-1.28;100.00;97653.39;109020;1260;72406;-62
2024/01/03 11:05:37;;;;;;;12.00;5.70;;;;;;;-1.27;100.00;97650.52;108948;1257;58224;-63
2024/01/03 11:08:48;;;;;;;12.30;5.20;;;;;;;-1.22;100.00;97656.33;108834;1257;58937;-63
2024/01/03 11:11:38;;;;;;;11.90;5.20;;;;;;;-1.17;100.00;97652.32;108961;1259;74449;-63
2024/01/03 11:14:26;;;;;;;12.60;5.50;;;;;;;-1.15;100.00;97649.89;109034;1258;68149;-62
2024/01/03 11:17:33;;;;;;;10.80;4.50;;;;;;;-1.11;100.00;97644.24;108992;1259;72691;-62
2024/01/03 11:20:28;;;;;;;14.60;6.20;;;;;;;-1.06;100.00;97644.41;108133;1259;1002461;-66
2024/01/03 11:23:31;;;;;;;13.70;5.40;;;;;;;-1.05;100.00;97635.84;109015;1259;60090;-63
2024/01/03 11:26:19;;;;;;;11.40;5.40;;;;;;;-1.02;100.00;97627.77;108977;1260;72338;-62
2024/01/03 11:29:07;;;;;;;14.20;6.20;;;;;;;-1.03;100.00;97620.55;108968;1259;68303;-62
2024/01/03 11:31:55;;;;;;;11.60;5.50;;;;;;;-1.01;100.00;97623.38;109028;1258;71132;-62
2024/01/03 11:34:48;;;;;;;11.40;5.20;;;;;;;-0.95;100.00;97621.77;108922;1258;58365;-63
2024/01/03 11:37:38;;;;;;;13.30;5.90;;;;;;;-0.95;100.00;97618.48;108933;1259;61503;-60
2024/01/03 11:40:26;;;;;;;12.30;5.50;;;;;;;-0.95;100.00;97616.55;108989;1258;74551;-63
2024/01/03 11:43:14;;;;;;;13.30;5.80;;;;;;;-0.96;100.00;97620.23;109032;1258;68716;-62
2024/01/03 11:46:12;;;;;;;12.00;5.40;;;;;;;-0.94;100.00;97618.52;108946;1259;74021;-66
2024/01/03 11:49:07;;;;;;;13.30;4.90;;;;;;;-0.92;100.00;97612.45;108955;1259;58577;-64
2024/01/03 11:51:57;;;;;;;11.20;4.70;;;;;;;-0.92;100.00;97608.84;108953;1259;60115;-61
2024/01/03 11:54:45;;;;;;;12.20;5.40;;;;;;;-0.95;100.00;97601.00;109016;1259;71507;-63
2024/01/03 11:57:34;;;;;;;11.30;5.40;;;;;;;-0.98;100.00;97600.36;108958;1259;66731;-61
2024/01/03 12:00:24;;;;;;;13.80;6.20;;;;;;;-1.02;100.00;97603.43;108204;1258;1003006;-63
2024/01/03 12:03:26;;;;;;;14.70;5.40;;;;;;;-0.98;100.00;97612.59;108267;1259;1002522;-61
2024/01/03 12:06:19;;;;;;;12.50;5.70;;;;;;;-1.06;100.00;97609.77;108932;1260;58868;-62
2024/01/03 12:09:08;;;;;;;15.10;6.20;;;;;;;-1.21;100.00;97612.56;108941;1260;73746;-61
2024/01/03 12:11:55;;;;;;;12.30;5.80;;;;;;;-1.24;100.00;97617.25;108983;1259;68364;-61
2024/01/03 12:14:51;;;;;;;12.80;5.80;;;;;;;-1.33;100.00;97604.99;108929;1259;72749;-62
2024/01/03 12:17:39;;;;;;;13.70;6.20;;;;;;;-1.36;100.00;97610.25;108940;1259;58269;-61
2024/01/03 12:20:27;;;;;;;11.20;4.80;;;;;;;-1.42;100.00;97611.33;109102;1260;59165;-60
2024/01/03 12:23:14;;;;;;;13.40;5.80;;;;;;;-1.45;100.00;97610.54;108801;1259;73675;-65
2024/01/03 12:26:10;;;;;;;15.50;6.10;;;;;;;-1.49;100.00;97608.36;109050;1259;67614;-63
2024/01/03 12:29:02;;;;;;;16.20;7.00;;;;;;;-1.54;100.00;97605.38;108894;1259;71475;-63
2024/01/03 12:31:50;;;;;;;17.60;6.50;;;;;;;-1.55;100.00;97607.19;108941;1257;58544;-62
2024/01/03 12:34:45;;;;;;;14.90;6.00;;;;;;;-1.59;100.00;97605.36;108964;1259;60103;-61
2024/01/03 12:37:34;;;;;;;12.60;5.70;;;;;;;-1.61;100.00;97603.26;109078;1260;73630;-64
2024/01/03 12:40:21;;;;;;;13.50;6.00;;;;;;;-1.58;100.00;97602.04;107427;1259;1002536;-62
2024/01/03 12:43:09;;;;;;;17.20;6.50;;;;;;;-1.57;100.00;97603.34;108135;1258;1002172;-61
2024/01/03 12:45:57;;;;;;;14.70;7.20;;;;;;;-1.58;100.00;97603.77;108960;1258;59790;-61